createdAt,value
2019-05-09T00:01:33.577Z,82.76
2019-05-09T00:04:05.718Z,82.96
2019-05-09T00:06:37.328Z,83.21
2019-05-09T00:09:09.068Z,83.36
2019-05-09T00:11:41.136Z,83.51
2019-05-09T00:14:13.723Z,83.68
2019-05-09T00:16:45.802Z,83.89
2019-05-09T00:19:17.952Z,84.04
2019-05-09T00:21:51.366Z,84.18
2019-05-09T00:24:23.882Z,84.28
2019-05-09T00:26:55.583Z,84.47
2019-05-09T00:29:36.058Z,84.55
2019-05-09T00:32:24.722Z,84.67
2019-05-09T00:35:04.680Z,84.76
2019-05-09T00:37:53.638Z,84.83
2019-05-09T00:40:25.917Z,84.89
2019-05-09T00:42:57.723Z,84.95
2019-05-09T00:45:47.361Z,85.00
2019-05-09T00:48:22.941Z,85.09
2019-05-09T00:50:54.556Z,85.22
2019-05-09T00:53:26.302Z,85.31
2019-05-09T00:55:58.430Z,85.40
2019-05-09T00:58:30.124Z,85.53
2019-05-09T01:01:04.419Z,85.63
2019-05-09T01:03:36.716Z,85.72
2019-05-09T01:06:08.393Z,85.83
2019-05-09T01:08:40.248Z,86.02
2019-05-09T01:11:15.326Z,86.21
2019-05-09T01:13:45.414Z,86.45
2019-05-09T01:16:17.476Z,86.66
2019-05-09T01:18:49.573Z,86.90
2019-05-09T01:21:23.795Z,87.14
2019-05-09T01:23:56.309Z,87.43
2019-05-09T01:26:27.978Z,87.63
2019-05-09T01:28:59.861Z,87.84
2019-05-09T01:31:33.258Z,88.00
2019-05-09T01:34:16.694Z,88.21
2019-05-09T01:37:05.148Z,88.35
2019-05-09T01:39:37.423Z,88.68
2019-05-09T01:42:09.176Z,89.04
2019-05-09T01:44:41.246Z,89.56
2019-05-09T01:47:14.062Z,89.92
2019-05-09T01:49:46.009Z,90.25
2019-05-09T01:52:18.159Z,90.58
2019-05-09T01:54:50.271Z,90.86
2019-05-09T01:57:23.464Z,91.08
2019-05-09T01:59:55.173Z,91.28
2019-05-09T02:02:27.377Z,91.50
2019-05-09T02:04:58.991Z,91.64
2019-05-09T02:07:30.749Z,91.77
2019-05-09T02:10:03.533Z,91.86
2019-05-09T02:12:35.310Z,91.98
2019-05-09T02:15:13.061Z,92.07
2019-05-09T02:18:05.217Z,92.16
2019-05-09T02:20:36.603Z,92.34
2019-05-09T02:23:08.549Z,92.44
2019-05-09T02:25:40.534Z,92.56
2019-05-09T02:28:14.159Z,92.76
2019-05-09T02:30:45.874Z,92.91
2019-05-09T02:33:19.421Z,93.08
2019-05-09T02:35:57.052Z,93.24
2019-05-09T02:38:24.958Z,93.45
2019-05-09T02:40:59.517Z,93.55
2019-05-09T02:43:30.424Z,93.69
2019-05-09T02:46:09.722Z,93.79
2019-05-09T02:48:40.423Z,93.97
2019-05-09T02:51:12.265Z,94.05
2019-05-09T02:53:43.793Z,94.16
2019-05-09T02:56:18.753Z,94.27
2019-05-09T02:58:51.001Z,94.40
2019-05-09T03:01:39.367Z,94.44
2019-05-09T03:04:11.436Z,94.52
2019-05-09T03:06:43.217Z,94.63
2019-05-09T03:09:15.155Z,94.73
2019-05-09T03:11:48.577Z,94.92
2019-05-09T03:14:20.624Z,94.99
2019-05-09T03:16:52.386Z,95.06
2019-05-09T03:19:24.351Z,95.08
2019-05-09T03:22:00.527Z,95.14
2019-05-09T03:24:32.485Z,95.13
2019-05-09T03:27:08.842Z,95.17
2019-05-09T03:29:42.432Z,95.25
2019-05-09T03:32:14.501Z,95.30
2019-05-09T03:34:47.794Z,95.33
2019-05-09T03:37:19.592Z,95.37
2019-05-09T03:39:51.747Z,95.39
2019-05-09T03:42:38.027Z,95.47
2019-05-09T03:44:58.099Z,95.56
2019-05-09T03:47:31.428Z,95.65
2019-05-09T03:50:17.880Z,95.66
2019-05-09T03:52:49.483Z,95.72
2019-05-09T03:55:22.992Z,95.89
2019-05-09T03:57:59.463Z,96.14
2019-05-09T04:00:31.505Z,96.41
2019-05-09T04:03:04.303Z,96.64
2019-05-09T04:05:37.673Z,96.84
2019-05-09T04:08:19.197Z,97.06
2019-05-09T04:10:53.950Z,97.32
2019-05-09T04:13:28.305Z,97.61
2019-05-09T04:16:00.389Z,97.80
2019-05-09T04:18:32.466Z,97.96
2019-05-09T04:21:04.330Z,98.12
2019-05-09T04:23:37.874Z,98.25
2019-05-09T04:26:13.868Z,98.43
2019-05-09T04:28:47.212Z,98.62
2019-05-09T04:31:18.830Z,98.75
2019-05-09T04:33:50.922Z,98.79
2019-05-09T04:36:24.081Z,98.77
2019-05-09T04:38:57.804Z,98.86
2019-05-09T04:41:29.564Z,98.98
2019-05-09T04:44:05.183Z,99.16
2019-05-09T04:46:34.831Z,99.26
2019-05-09T04:49:08.192Z,99.38
2019-05-09T04:51:40.471Z,99.50
2019-05-09T04:54:12.149Z,99.68
2019-05-09T04:56:47.277Z,99.80
2019-05-09T04:59:20.035Z,99.87
2019-05-09T05:02:09.120Z,99.94
2019-05-09T05:04:41.098Z,100.00
2019-05-09T05:07:13.071Z,100.00
2019-05-09T05:09:45.126Z,99.96
2019-05-09T05:12:18.599Z,99.88
2019-05-09T05:14:50.373Z,99.83
2019-05-09T05:17:22.583Z,99.77
2019-05-09T05:19:55.131Z,99.68
2019-05-09T05:22:28.838Z,99.57
2019-05-09T05:25:02.533Z,99.45
2019-05-09T05:27:34.203Z,99.48
2019-05-09T05:30:07.740Z,99.37
2019-05-09T05:32:41.929Z,99.26
2019-05-09T05:35:15.322Z,99.15
2019-05-09T05:37:49.030Z,99.04
2019-05-09T05:40:21.315Z,98.99
2019-05-09T05:42:53.151Z,98.96
2019-05-09T05:45:28.483Z,98.98
2019-05-09T05:48:11.221Z,98.97
2019-05-09T05:50:43.419Z,98.75
2019-05-09T05:53:15.137Z,98.36
2019-05-09T05:55:50.490Z,98.09
2019-05-09T05:58:20.505Z,97.76
2019-05-09T06:00:52.387Z,97.50
2019-05-09T06:03:24.444Z,97.46
2019-05-09T06:05:58.487Z,97.62
2019-05-09T06:08:29.716Z,97.67
2019-05-09T06:11:01.376Z,97.75
2019-05-09T06:13:33.329Z,97.81
2019-05-09T06:16:05.275Z,97.62
2019-05-09T06:18:38.463Z,97.37
2019-05-09T06:21:10.351Z,97.24
2019-05-09T06:23:42.107Z,97.38
2019-05-09T06:26:13.871Z,97.29
2019-05-09T06:28:48.079Z,97.21
2019-05-09T06:31:19.535Z,97.33
2019-05-09T06:33:53.569Z,97.31
2019-05-09T06:36:25.011Z,96.96
2019-05-09T06:38:58.771Z,96.66
2019-05-09T06:41:30.684Z,96.81
2019-05-09T06:44:14.325Z,96.96
2019-05-09T06:46:39.304Z,96.94
2019-05-09T06:49:26.809Z,96.98
2019-05-09T06:51:47.648Z,96.76
2019-05-09T06:54:19.316Z,96.75
2019-05-09T06:56:51.378Z,96.41
2019-05-09T06:59:23.443Z,95.55
2019-05-09T07:01:59.713Z,95.14
2019-05-09T07:04:39.128Z,94.92
2019-05-09T07:07:21.659Z,94.35
2019-05-09T07:09:58.702Z,93.94
2019-05-09T07:12:30.704Z,92.92
2019-05-09T07:15:02.572Z,91.74
2019-05-09T07:17:34.460Z,91.72
2019-05-09T07:20:08.400Z,90.84
2019-05-09T07:22:41.928Z,89.23
2019-05-09T07:25:24.697Z,89.72
2019-05-09T07:27:58.644Z,90.30
2019-05-09T07:30:48.110Z,90.23
2019-05-09T07:33:21.540Z,90.34
2019-05-09T07:35:53.391Z,90.14
2019-05-09T07:38:32.122Z,90.01
2019-05-09T07:41:04.196Z,90.02
2019-05-09T07:43:38.321Z,89.82
2019-05-09T07:46:20.097Z,89.43
2019-05-09T07:48:53.642Z,88.73
2019-05-09T07:51:27.503Z,88.91
2019-05-09T07:53:59.232Z,88.25
2019-05-09T07:56:31.021Z,87.52
2019-05-09T07:59:03.196Z,87.00
2019-05-09T08:01:35.463Z,87.37
2019-05-09T08:04:07.764Z,86.47
2019-05-09T08:06:39.895Z,86.36
2019-05-09T08:09:12.063Z,86.64
2019-05-09T08:11:44.012Z,85.72
2019-05-09T08:14:17.580Z,85.60
2019-05-09T08:16:49.609Z,86.00
2019-05-09T08:19:21.361Z,85.04
2019-05-09T08:21:53.210Z,85.02
2019-05-09T08:24:27.569Z,84.85
2019-05-09T08:26:58.779Z,85.19
2019-05-09T08:29:31.559Z,84.65
2019-05-09T08:32:03.422Z,82.84
2019-05-09T08:34:37.535Z,83.06
2019-05-09T08:37:12.516Z,83.29
2019-05-09T08:39:42.485Z,83.13
2019-05-09T08:43:10.025Z,83.22
2019-05-09T08:46:00.879Z,83.18
2019-05-09T08:48:33.528Z,81.57
2019-05-09T08:55:24.794Z,79.32
2019-05-09T08:57:58.625Z,78.86
2019-05-09T09:00:30.150Z,78.85
2019-05-09T09:03:02.154Z,78.72
2019-05-09T09:05:34.172Z,78.18
2019-05-09T09:08:08.369Z,78.05
2019-05-09T09:10:39.617Z,78.54
2019-05-09T09:13:11.353Z,78.32
2019-05-09T09:16:05.579Z,77.72
2019-05-09T09:18:17.932Z,78.28
2019-05-09T09:20:49.851Z,79.26
2019-05-09T09:23:22.222Z,79.72
2019-05-09T09:25:54.096Z,79.74
2019-05-09T09:28:27.641Z,79.67
2019-05-09T09:31:00.495Z,79.72
2019-05-09T09:33:32.131Z,79.93
2019-05-09T09:36:03.872Z,79.98
2019-05-09T09:38:37.542Z,80.07
2019-05-09T09:41:09.637Z,80.24
2019-05-09T09:43:41.404Z,80.19
2019-05-09T09:46:14.825Z,80.50
2019-05-09T09:53:08.637Z,79.89
2019-05-09T09:55:40.576Z,80.07
2019-05-09T09:58:30.894Z,80.18
2019-05-09T10:05:38.821Z,79.89
2019-05-09T10:08:13.977Z,78.96
2019-05-09T10:10:44.337Z,79.66
2019-05-09T10:13:18.325Z,79.75
2019-05-09T10:16:00.830Z,79.96
2019-05-09T10:18:34.489Z,80.24
2019-05-09T10:21:10.465Z,80.97
2019-05-09T10:23:42.109Z,81.60
2019-05-09T10:26:14.288Z,81.87
2019-05-09T10:28:48.378Z,82.31
2019-05-09T10:31:19.451Z,82.52
2019-05-09T10:33:51.308Z,82.50
2019-05-09T10:36:23.479Z,82.46
2019-05-09T10:38:58.206Z,82.53
2019-05-09T10:41:29.329Z,82.80
2019-05-09T10:44:02.587Z,82.20
2019-05-09T10:46:52.428Z,82.00
2019-05-09T10:49:17.645Z,82.48
2019-05-09T10:51:49.592Z,82.22
2019-05-09T10:54:21.576Z,82.36
2019-05-09T10:56:53.739Z,82.30
2019-05-09T10:59:27.561Z,82.70
2019-05-09T11:01:59.213Z,83.13
2019-05-09T11:04:31.380Z,82.89
2019-05-09T11:07:03.254Z,83.09
2019-05-09T11:09:35.200Z,83.36
2019-05-09T11:12:07.944Z,83.31
2019-05-09T11:14:40.168Z,83.61
2019-05-09T11:17:18.440Z,83.82
2019-05-09T11:19:48.087Z,84.25
2019-05-09T11:22:19.129Z,84.15
2019-05-09T11:24:51.405Z,84.28
2019-05-09T11:27:23.564Z,84.24
2019-05-09T11:29:57.684Z,84.27
2019-05-09T11:32:29.354Z,84.17
2019-05-09T11:35:01.193Z,84.56
2019-05-09T11:37:32.960Z,85.13
2019-05-09T11:40:06.866Z,85.41
2019-05-09T11:42:39.037Z,85.61
2019-05-09T11:45:11.120Z,85.95
2019-05-09T11:47:46.493Z,86.05
2019-05-09T11:50:22.541Z,86.30
2019-05-09T11:52:49.970Z,86.61
2019-05-09T11:55:34.994Z,86.75
2019-05-09T11:57:55.158Z,87.01
2019-05-09T12:00:29.223Z,87.09
2019-05-09T12:03:00.165Z,87.54
2019-05-09T12:05:32.451Z,88.44
2019-05-09T12:08:04.827Z,88.89
2019-05-09T12:10:38.257Z,89.21
2019-05-09T12:13:10.084Z,89.52
2019-05-09T12:15:42.142Z,90.00
2019-05-09T12:18:14.219Z,90.16
2019-05-09T12:20:48.283Z,90.35
2019-05-09T12:23:20.057Z,90.67
2019-05-09T12:25:51.849Z,90.92
2019-05-09T12:28:23.697Z,91.19
2019-05-09T12:30:55.900Z,91.49
2019-05-09T12:33:28.468Z,91.53
2019-05-09T12:36:00.948Z,91.55
2019-05-09T12:38:32.958Z,92.08
2019-05-09T12:41:04.648Z,92.67
2019-05-09T12:43:38.184Z,93.17
2019-05-09T12:46:10.075Z,93.87
2019-05-09T12:48:42.093Z,94.31
2019-05-09T12:51:13.947Z,94.70
2019-05-09T12:53:48.445Z,95.01
2019-05-09T12:56:20.456Z,95.17
2019-05-09T12:58:52.449Z,95.29
2019-05-09T13:01:24.398Z,95.58
2019-05-09T13:03:58.302Z,95.81
2019-05-09T13:06:30.006Z,95.78
2019-05-09T13:09:01.705Z,95.62
2019-05-09T13:11:35.104Z,95.33
2019-05-09T13:14:10.051Z,94.99
2019-05-09T13:16:54.376Z,94.87
2019-05-09T13:19:27.958Z,94.72
2019-05-09T13:21:59.859Z,94.81
2019-05-09T13:24:31.701Z,94.66
2019-05-09T13:27:03.803Z,94.74
2019-05-09T13:29:37.919Z,94.51
2019-05-09T13:32:09.136Z,94.20
2019-05-09T13:34:40.798Z,93.77
2019-05-09T13:37:12.776Z,93.47
2019-05-09T13:39:44.836Z,92.84
2019-05-09T13:42:19.666Z,91.31
2019-05-09T13:44:50.001Z,91.13
2019-05-09T13:47:21.636Z,91.07
2019-05-09T13:49:55.969Z,91.17
2019-05-09T13:52:27.971Z,91.32
2019-05-09T13:54:59.546Z,90.36
2019-05-09T13:57:31.235Z,89.37
2019-05-09T14:00:02.890Z,89.44
2019-05-09T14:02:35.073Z,89.62
2019-05-09T14:05:09.010Z,89.72
2019-05-09T14:07:39.940Z,89.69
2019-05-09T14:10:11.588Z,90.14
2019-05-09T14:12:43.754Z,90.29
2019-05-09T14:15:15.292Z,90.45
2019-05-09T14:17:52.615Z,90.73
2019-05-09T14:20:20.877Z,90.87
2019-05-09T14:22:52.842Z,90.86
2019-05-09T14:25:24.615Z,90.78
2019-05-09T14:27:56.650Z,90.60
2019-05-09T14:30:28.726Z,90.28
2019-05-09T14:33:00.506Z,89.57
2019-05-09T14:35:32.240Z,89.11
2019-05-09T14:38:04.519Z,89.22
2019-05-09T14:40:37.404Z,88.96
2019-05-09T14:43:09.926Z,88.73
2019-05-09T14:45:41.640Z,88.65
2019-05-09T14:48:13.639Z,88.59
2019-05-09T14:50:45.684Z,88.71
2019-05-09T14:53:18.165Z,88.87
2019-05-09T14:55:50.017Z,88.76
2019-05-09T14:58:21.879Z,88.24
2019-05-09T15:00:53.846Z,87.85
2019-05-09T15:03:27.762Z,87.74
2019-05-09T15:05:59.724Z,87.73
2019-05-09T15:08:31.585Z,87.95
2019-05-09T15:11:03.740Z,88.02
2019-05-09T15:13:35.700Z,87.87
2019-05-09T15:16:08.850Z,87.70
2019-05-09T15:18:40.671Z,87.57
2019-05-09T15:21:12.533Z,87.22
2019-05-09T15:23:44.411Z,86.99
2019-05-09T15:26:17.677Z,87.25
2019-05-09T15:28:49.473Z,87.45
2019-05-09T15:31:21.504Z,87.40
2019-05-09T15:33:53.175Z,87.43
2019-05-09T15:36:25.018Z,87.33
2019-05-09T15:38:59.109Z,87.09
2019-05-09T15:41:30.283Z,87.03
2019-05-09T15:44:01.942Z,87.18
2019-05-09T15:46:51.520Z,87.41
2019-05-09T15:49:23.697Z,87.55
2019-05-09T15:51:55.344Z,87.60
2019-05-09T15:54:29.366Z,87.92
2019-05-09T15:57:00.803Z,88.35
2019-05-09T15:59:32.954Z,88.83
2019-05-09T16:02:04.839Z,89.00
2019-05-09T16:04:40.180Z,89.24
2019-05-09T16:07:10.132Z,89.38
2019-05-09T16:09:42.179Z,89.66
2019-05-09T16:12:14.044Z,89.99
2019-05-09T16:14:48.492Z,90.26
2019-05-09T16:17:19.525Z,90.38
2019-05-09T16:19:51.275Z,90.09
2019-05-09T16:22:23.391Z,89.93
2019-05-09T16:24:55.459Z,89.70
2019-05-09T16:27:27.466Z,88.78
2019-05-09T16:29:59.450Z,88.60
2019-05-09T16:32:31.516Z,89.07
2019-05-09T16:35:03.172Z,89.42
2019-05-09T16:37:52.554Z,89.44
2019-05-09T16:40:09.317Z,89.44
2019-05-09T16:42:41.424Z,89.79
2019-05-09T16:45:13.626Z,89.86
2019-05-09T16:47:45.245Z,90.02
2019-05-09T16:50:18.011Z,90.12
2019-05-09T16:52:49.993Z,89.92
2019-05-09T16:55:23.289Z,88.19
2019-05-09T16:57:57.243Z,86.39
2019-05-09T17:00:38.132Z,86.39
2019-05-09T17:03:11.307Z,86.32
2019-05-09T17:05:43.027Z,86.71
2019-05-09T17:08:14.879Z,87.23
2019-05-09T17:10:48.643Z,87.59
2019-05-09T17:13:20.255Z,87.69
2019-05-09T17:15:52.124Z,88.09
2019-05-09T17:18:23.860Z,88.55
2019-05-09T17:21:18.474Z,88.96
2019-05-09T17:23:43.370Z,89.39
2019-05-09T17:26:17.583Z,89.66
2019-05-09T17:28:49.151Z,90.00
2019-05-09T17:31:20.803Z,90.36
2019-05-09T17:33:53.074Z,90.70
2019-05-09T17:36:24.830Z,91.01
2019-05-09T17:38:56.776Z,91.11
2019-05-09T17:41:28.840Z,91.05
2019-05-09T17:44:00.518Z,90.71
2019-05-09T17:46:32.664Z,90.61
2019-05-09T17:49:04.446Z,90.69
2019-05-09T17:51:36.524Z,90.78
2019-05-09T17:54:08.414Z,90.81
2019-05-09T17:56:40.334Z,90.66
2019-05-09T17:59:12.482Z,90.60
2019-05-09T18:01:44.670Z,90.62
2019-05-09T18:04:17.963Z,90.63
2019-05-09T18:06:50.952Z,90.66
2019-05-09T18:09:22.799Z,90.59
2019-05-09T18:11:57.849Z,90.53
2019-05-09T18:14:29.591Z,90.46
2019-05-09T18:17:01.253Z,90.35
2019-05-09T18:19:33.009Z,90.23
2019-05-09T18:22:04.995Z,90.25
2019-05-09T18:24:37.756Z,90.27
2019-05-09T18:27:09.909Z,90.26
2019-05-09T18:29:41.605Z,90.19
2019-05-09T18:32:33.537Z,90.15
2019-05-09T18:35:17.070Z,90.15
2019-05-09T18:37:49.121Z,90.08
2019-05-09T18:40:21.345Z,90.21
2019-05-09T18:42:53.526Z,90.38
2019-05-09T18:45:28.051Z,90.46
2019-05-09T18:47:59.249Z,90.60
2019-05-09T18:50:31.107Z,90.68
2019-05-09T18:53:03.164Z,90.72
2019-05-09T18:55:35.141Z,90.88
2019-05-09T18:58:07.587Z,91.06
2019-05-09T19:00:39.488Z,91.13
2019-05-09T19:03:11.213Z,91.21
2019-05-09T19:05:43.570Z,91.31
2019-05-09T19:08:15.579Z,91.25
2019-05-09T19:10:51.799Z,91.09
2019-05-09T19:13:20.940Z,91.02
2019-05-09T19:15:58.417Z,90.85
2019-05-09T19:18:41.356Z,90.87
2019-05-09T19:21:15.672Z,90.99
2019-05-09T19:23:47.932Z,91.17
2019-05-09T19:26:24.855Z,91.40
2019-05-09T19:28:56.877Z,91.56
2019-05-09T19:31:29.487Z,91.72
2019-05-09T19:34:01.237Z,91.91
2019-05-09T19:36:36.010Z,92.13
2019-05-09T19:39:09.721Z,92.26
2019-05-09T19:41:41.817Z,92.57
2019-05-09T19:44:13.589Z,92.86
2019-05-09T19:46:47.295Z,93.10
2019-05-09T19:49:19.467Z,93.35
2019-05-09T19:51:51.440Z,93.56
2019-05-09T19:54:24.243Z,93.77
2019-05-09T19:56:55.972Z,94.06
2019-05-09T19:59:27.918Z,94.28
2019-05-09T20:01:59.882Z,94.50
2019-05-09T20:04:31.568Z,94.81
2019-05-09T20:07:03.620Z,95.05
2019-05-09T20:09:37.124Z,95.25
2019-05-09T20:12:22.701Z,95.55
2019-05-09T20:14:55.327Z,95.82
2019-05-09T20:17:28.698Z,95.93
2019-05-09T20:20:01.062Z,96.07
2019-05-09T20:22:33.013Z,96.22
2019-05-09T20:25:06.947Z,96.36
2019-05-09T20:27:38.585Z,96.43
2019-05-09T20:30:12.270Z,96.53
2019-05-09T20:32:44.009Z,96.60
2019-05-09T20:35:16.611Z,96.67
2019-05-09T20:37:48.896Z,96.77
2019-05-09T20:40:21.362Z,96.96
2019-05-09T20:42:53.649Z,97.16
2019-05-09T20:45:26.144Z,97.31
2019-05-09T20:47:58.395Z,97.47
2019-05-09T20:50:30.351Z,97.58
2019-05-09T20:53:23.280Z,97.69
2019-05-09T20:55:58.015Z,97.81
2019-05-09T20:58:30.658Z,97.99
2019-05-09T21:01:02.789Z,98.15
2019-05-09T21:03:34.843Z,98.34
2019-05-09T21:06:07.040Z,98.48
2019-05-09T21:08:39.080Z,98.62
2019-05-09T21:11:11.345Z,98.67
2019-05-09T21:13:48.474Z,98.75
2019-05-09T21:16:17.416Z,98.76
2019-05-09T21:18:49.886Z,98.75
2019-05-09T21:21:21.899Z,98.77
2019-05-09T21:23:54.751Z,98.93
2019-05-09T21:26:26.807Z,99.13
2019-05-09T21:28:59.300Z,99.27
2019-05-09T21:31:31.359Z,99.32
2019-05-09T21:34:03.598Z,99.42
2019-05-09T21:36:36.294Z,99.57
2019-05-09T21:39:07.966Z,99.73
2019-05-09T21:41:40.255Z,99.79
2019-05-09T21:44:12.291Z,99.85
2019-05-09T21:46:44.269Z,99.89
2019-05-09T21:49:16.454Z,99.90
2019-05-09T21:51:48.198Z,99.91
2019-05-09T21:54:20.063Z,99.84
2019-05-09T21:56:53.223Z,99.75
2019-05-09T21:59:27.604Z,99.63
2019-05-09T22:01:59.543Z,99.48
2019-05-09T22:04:31.380Z,99.25
2019-05-09T22:07:03.243Z,99.00
2019-05-09T22:09:35.525Z,98.79
2019-05-09T22:12:07.971Z,98.57
2019-05-09T22:14:39.849Z,98.37
2019-05-09T22:17:33.925Z,98.21
2019-05-09T22:20:07.094Z,98.11
2019-05-09T22:22:39.223Z,98.13
2019-05-09T22:25:12.942Z,98.18
2019-05-09T22:27:45.023Z,98.27
2019-05-09T22:30:17.407Z,98.39
2019-05-09T22:32:49.204Z,98.51
2019-05-09T22:35:21.774Z,98.62
2019-05-09T22:37:53.424Z,98.72
2019-05-09T22:40:25.276Z,98.78
2019-05-09T22:42:56.817Z,98.81
2019-05-09T22:45:29.082Z,98.78
2019-05-09T22:48:01.701Z,98.72
2019-05-09T22:50:33.347Z,98.66
2019-05-09T22:53:05.615Z,98.58
2019-05-09T22:55:37.852Z,98.46
2019-05-09T22:58:09.808Z,98.36
2019-05-09T23:00:41.905Z,98.23
2019-05-09T23:03:14.310Z,98.10
2019-05-09T23:05:46.698Z,97.97
2019-05-09T23:08:18.718Z,97.77
2019-05-09T23:10:53.414Z,97.11
2019-05-09T23:13:25.047Z,96.59
2019-05-09T23:15:56.757Z,96.25
2019-05-09T23:18:28.879Z,96.09
2019-05-09T23:21:01.319Z,95.76
2019-05-09T23:23:34.826Z,95.49
2019-05-09T23:26:06.722Z,95.24
2019-05-09T23:28:38.724Z,95.04
2019-05-09T23:31:12.345Z,94.81
2019-05-09T23:33:45.177Z,94.59
2019-05-09T23:36:16.771Z,94.43
2019-05-09T23:39:08.607Z,94.34
2019-05-09T23:41:40.344Z,94.27
2019-05-09T23:44:12.154Z,94.27
2019-05-09T23:46:44.205Z,94.35
2019-05-09T23:49:16.062Z,94.47
2019-05-09T23:51:50.891Z,94.61
2019-05-09T23:54:46.608Z,94.78
2019-05-09T23:57:32.505Z,94.91
